Weather at Déline Airport

Public forecast

Using degrees Celsius for public forecast. Weather courtesy of forecast.io.

Current aviation weather report (METAR) for Déline Airport

Retrieved 2021/06/12 20:00 UTC (20 minutes ago):

CYWJ 122000Z 18003KT 1 1/2SM -RA BR BKN002 BKN004 OVC006 05/05 A2956 RMK ST5ST2ST1 VIS LWR E SLP023

Aviation forecast (TAF) for Déline Airport

Retrieved 2021/06/12 18:00 UTC (2 hours ago):

TAF CYWJ 121738Z 1218/1223 VRB03KT 5SM -RA BR OVC012 TEMPO 1218/1223 11/2SM -RA BR OVC006 BECMG 1219/1221 08005KT RMK NXT FCST WILL BE ISSUED AT 141415Z